Time;durP1;ratioP1;P1;durP2;ratioP2;P2;SDS_P1;SDS_P2;PMS_P1;PMS_P2;Temp;Humidity;BMP_temperature;BMP_pressure;BME280_temperature;BME280_humidity;BME280_pressure;Samples;Min_cycle;Max_cycle;Signal;HPM_P1;HPM_P2
2022/05/24 00:00:59;;;;;;;8.50;5.00;;;17.60;99.90;;;;;;5011521;28;20037;-46
2022/05/24 00:03:25;;;;;;;9.00;5.22;;;17.60;99.90;;;;;;5014136;28;20084;-46
2022/05/24 00:05:50;;;;;;;6.82;4.93;;;17.60;99.90;;;;;;5016518;28;20054;-47
2022/05/24 00:08:16;;;;;;;6.22;4.82;;;17.60;99.90;;;;;;5014862;28;20022;-47
2022/05/24 00:10:42;;;;;;;6.05;4.40;;;17.60;99.90;;;;;;5014734;28;20082;-46
2022/05/24 00:13:10;;;;;;;5.70;4.55;;;17.60;99.90;;;;;;5016058;28;20026;-47
2022/05/24 00:15:35;;;;;;;5.35;4.35;;;17.60;99.90;;;;;;5014815;28;20029;-46
2022/05/24 00:18:08;;;;;;;5.93;4.50;;;17.50;99.90;;;;;;5015569;28;20587;-46
2022/05/24 00:20:37;;;;;;;7.68;4.95;;;17.60;99.90;;;;;;5014709;28;20026;-47
2022/05/24 00:23:03;;;;;;;5.93;4.43;;;17.60;99.90;;;;;;5014559;28;20025;-46
2022/05/24 00:25:33;;;;;;;5.53;4.57;;;17.50;99.90;;;;;;5014881;28;20103;-47
2022/05/24 00:27:59;;;;;;;7.43;5.10;;;17.50;99.90;;;;;;5014457;28;20030;-46
2022/05/24 00:30:25;;;;;;;6.55;4.72;;;17.50;99.90;;;;;;5015989;28;20018;-47
2022/05/24 00:32:51;;;;;;;5.30;3.80;;;17.50;99.90;;;;;;5014882;28;20022;-46
2022/05/24 00:35:17;;;;;;;6.80;4.72;;;17.50;99.90;;;;;;5014387;28;20026;-46
2022/05/24 00:37:45;;;;;;;7.63;4.85;;;17.50;99.90;;;;;;5014378;28;20029;-48
2022/05/24 00:40:33;;;;;;;7.90;4.40;;;17.50;99.90;;;;;;5015652;28;20029;-46
2022/05/24 00:43:03;;;;;;;10.65;5.30;;;17.50;99.90;;;;;;5014544;28;20025;-47
2022/05/24 00:45:37;;;;;;;7.45;4.50;;;17.40;99.90;;;;;;5014666;28;20136;-46
2022/05/24 00:48:12;;;;;;;4.95;3.55;;;17.40;99.90;;;;;;5014164;28;20553;-46
2022/05/24 00:50:42;;;;;;;7.75;5.10;;;17.40;99.90;;;;;;5014086;28;20030;-49
2022/05/24 00:53:17;;;;;;;6.75;4.10;;;17.40;99.90;;;;;;5015628;28;20022;-50
2022/05/24 00:55:50;;;;;;;7.70;4.60;;;17.30;99.90;;;;;;5014022;28;20037;-46
2022/05/24 00:58:23;;;;;;;7.05;4.47;;;17.20;99.90;;;;;;5013922;28;20080;-47
2022/05/24 01:00:49;;;;;;;6.03;4.25;;;17.00;99.90;;;;;;5014075;28;20036;-51
2022/05/24 01:03:15;;;;;;;8.60;3.92;;;16.90;99.90;;;;;;5014147;28;20033;-49
2022/05/24 01:05:42;;;;;;;5.30;4.05;;;16.90;99.90;;;;;;5013796;28;20022;-48
2022/05/24 01:08:10;;;;;;;5.40;4.05;;;16.80;99.90;;;;;;5015034;28;20024;-50
2022/05/24 01:10:44;;;;;;;6.45;3.88;;;16.70;99.90;;;;;;5013630;28;20080;-50
2022/05/24 01:13:18;;;;;;;7.20;4.70;;;16.70;99.90;;;;;;5015185;28;20026;-51
2022/05/24 01:15:44;;;;;;;8.07;4.38;;;16.60;99.90;;;;;;5012612;28;20022;-50
2022/05/24 01:18:11;;;;;;;8.07;5.43;;;16.50;99.90;;;;;;5013580;28;20045;-48
2022/05/24 01:20:40;;;;;;;8.13;5.78;;;16.40;99.90;;;;;;5014829;28;20026;-48
2022/05/24 01:23:08;;;;;;;10.88;5.85;;;16.30;99.90;;;;;;5014982;28;20068;-50
2022/05/24 01:26:02;;;;;;;7.70;5.82;;;16.20;99.90;;;;;;5014675;28;20030;-49
2022/05/24 01:29:03;;;;;;;7.53;5.70;;;16.00;99.90;;;;;;5013599;28;20022;-48
2022/05/24 01:36:59;;;;;;;9.07;4.55;;;15.80;99.90;;;;;;5014654;28;20025;-46
2022/05/24 01:39:24;;;;;;;9.60;6.30;;;15.90;99.90;;;;;;5013476;28;20026;-46
2022/05/24 01:41:51;;;;;;;14.25;6.07;;;15.90;99.90;;;;;;5014271;28;20033;-46
2022/05/24 01:44:32;;;;;;;12.32;6.88;;;16.00;99.90;;;;;;5013372;28;20510;-46
2022/05/24 01:46:59;;;;;;;8.93;5.55;;;16.00;99.90;;;;;;5014668;28;20026;-47
2022/05/24 01:49:29;;;;;;;10.65;6.32;;;16.10;99.90;;;;;;5014188;28;20116;-47
2022/05/24 01:52:07;;;;;;;8.30;6.00;;;16.10;99.90;;;;;;5012901;28;20021;-47
2022/05/24 01:54:38;;;;;;;10.50;5.97;;;16.10;99.90;;;;;;5013718;28;20131;-46
2022/05/24 01:57:12;;;;;;;15.30;7.97;;;16.10;99.90;;;;;;5012850;28;20480;-46
2022/05/24 01:59:40;;;;;;;11.90;6.97;;;16.00;99.90;;;;;;5012963;28;20124;-46
2022/05/24 02:02:06;;;;;;;13.35;7.70;;;16.00;99.90;;;;;;5012749;28;20033;-47
2022/05/24 02:04:33;;;;;;;9.68;6.63;;;15.90;99.90;;;;;;5014064;28;20431;-46
2022/05/24 02:07:09;;;;;;;10.00;6.25;;;15.90;99.90;;;;;;5013465;28;20080;-46
2022/05/24 02:09:38;;;;;;;10.18;7.15;;;15.90;99.90;;;;;;5014241;28;20053;-46
2022/05/24 02:12:21;;;;;;;9.73;7.47;;;15.90;99.90;;;;;;5012571;28;20109;-46
2022/05/24 02:14:55;;;;;;;10.10;6.55;;;15.70;99.90;;;;;;5012723;28;20022;-46
2022/05/24 02:17:26;;;;;;;11.05;6.85;;;15.70;99.90;;;;;;5013170;28;20029;-46
2022/05/24 02:19:53;;;;;;;;;;;15.70;99.90;;;;;;5012987;28;20054;-46
2022/05/24 02:22:25;;;;;;;9.13;5.93;;;15.60;99.90;;;;;;5012385;28;20008;-46
2022/05/24 02:24:57;;;;;;;7.93;5.75;;;15.60;99.90;;;;;;5012307;28;20084;-46
2022/05/24 02:27:23;;;;;;;7.93;4.65;;;15.50;99.90;;;;;;5013378;28;20030;-46
2022/05/24 02:29:49;;;;;;;7.45;4.07;;;15.40;99.90;;;;;;5013597;28;20022;-46
2022/05/24 02:32:14;;;;;;;5.30;3.85;;;15.40;99.90;;;;;;5013836;28;20018;-46
2022/05/24 02:34:40;;;;;;;6.65;4.10;;;15.50;99.90;;;;;;5012636;28;20025;-50
2022/05/24 02:37:06;;;;;;;5.18;3.95;;;15.50;99.90;;;;;;5013570;28;20036;-47
2022/05/24 02:41:28;;;;;;;7.80;3.63;;;15.50;99.90;;;;;;5012487;28;20061;-47
2022/05/24 02:42:17;;;;;;;7.95;4.15;;;15.50;99.90;;;;;;5013255;28;20056;-48
2022/05/24 02:44:42;;;;;;;5.43;3.58;;;15.60;99.90;;;;;;5012175;28;20391;-48
2022/05/24 02:47:08;;;;;;;6.10;4.18;;;15.50;99.90;;;;;;5012047;28;20022;-47
2022/05/24 02:49:33;;;;;;;4.28;3.50;;;15.50;99.90;;;;;;5013036;28;20030;-48
2022/05/24 02:51:59;;;;;;;7.13;3.17;;;15.30;99.90;;;;;;5011932;28;20058;-46
2022/05/24 02:54:24;;;;;;;3.38;2.40;;;15.20;99.90;;;;;;5012002;28;20022;-46
2022/05/24 02:56:50;;;;;;;4.90;2.63;;;15.20;99.90;;;;;;5011949;28;20022;-47
2022/05/24 02:59:16;;;;;;;3.10;2.30;;;15.20;99.90;;;;;;5013179;28;20088;-46
2022/05/24 03:01:42;;;;;;;3.13;2.13;;;15.30;99.90;;;;;;5013315;28;20030;-47
2022/05/24 03:04:07;;;;;;;3.75;2.63;;;15.40;99.90;;;;;;5013078;28;20026;-49
2022/05/24 03:09:33;;;;;;;3.08;2.00;;;15.40;99.90;;;;;;5013106;28;20048;-46
2022/05/24 03:09:36;;;;;;;5.00;2.10;;;15.40;99.90;;;;;;5013066;28;20037;-47
2022/05/24 03:14:56;;;;;;;2.97;2.20;;;15.40;99.90;;;;;;5013381;28;20029;-51
2022/05/24 03:17:23;;;;;;;5.72;1.90;;;15.40;99.90;;;;;;5013020;28;20105;-48
2022/05/24 03:19:49;;;;;;;2.90;2.28;;;15.40;99.90;;;;;;5012989;28;20032;-47
2022/05/24 03:22:15;;;;;;;3.08;2.28;;;15.40;99.90;;;;;;5011641;28;20169;-50
2022/05/24 03:24:41;;;;;;;2.13;1.60;;;15.50;99.90;;;;;;5011682;28;20026;-49
2022/05/24 03:27:13;;;;;;;3.10;2.33;;;15.60;99.90;;;;;;5011722;28;20100;-50
2022/05/24 03:29:41;;;;;;;4.65;2.20;;;15.70;99.90;;;;;;5011577;28;20026;-49
2022/05/24 03:32:08;;;;;;;2.42;1.65;;;15.70;99.90;;;;;;5012795;28;20109;-49
2022/05/24 03:34:35;;;;;;;2.72;1.70;;;15.70;99.90;;;;;;5012877;28;20473;-47
2022/05/24 03:37:00;;;;;;;1.92;1.45;;;15.80;99.90;;;;;;5012959;28;20022;-50
2022/05/24 03:39:26;;;;;;;4.40;1.20;;;15.80;99.90;;;;;;5014634;28;20022;-48
2022/05/24 03:41:51;;;;;;;1.55;1.10;;;15.80;99.90;;;;;;5015624;28;20018;-46
2022/05/24 03:44:17;;;;;;;1.58;1.05;;;15.80;99.90;;;;;;5015323;28;20026;-46
2022/05/24 03:46:43;;;;;;;2.20;1.52;;;15.90;99.90;;;;;;5015415;28;20030;-46
2022/05/24 03:49:09;;;;;;;2.38;1.23;;;16.00;99.90;;;;;;5016507;28;20026;-46
2022/05/24 03:51:35;;;;;;;1.35;1.25;;;16.00;99.90;;;;;;5015116;28;20021;-46
2022/05/24 03:54:00;;;;;;;3.25;1.35;;;16.10;99.90;;;;;;5016241;28;20149;-46
2022/05/24 03:56:26;;;;;;;1.92;0.88;;;16.00;99.90;;;;;;5016507;28;20022;-46
2022/05/24 03:58:52;;;;;;;1.23;1.10;;;16.00;99.90;;;;;;5015040;28;20116;-46
2022/05/24 04:01:17;;;;;;;1.15;0.70;;;15.90;99.90;;;;;;5014963;28;20034;-46
2022/05/24 04:03:43;;;;;;;1.65;0.98;;;16.00;99.90;;;;;;5016308;28;20036;-46
2022/05/24 04:06:08;;;;;;;3.92;1.13;;;15.90;99.90;;;;;;5015460;28;20061;-46
2022/05/24 04:08:35;;;;;;;4.65;1.20;;;15.90;99.90;;;;;;5015134;28;20033;-47
2022/05/24 04:11:06;;;;;;;4.20;1.42;;;16.00;99.90;;;;;;5014833;28;20109;-46
2022/05/24 04:13:33;;;;;;;2.08;1.48;;;15.90;99.90;;;;;;5016357;28;20026;-46
2022/05/24 04:15:59;;;;;;;2.13;1.35;;;15.90;99.90;;;;;;5014684;28;20049;-46
2022/05/24 04:18:26;;;;;;;5.50;1.95;;;15.80;99.90;;;;;;5015979;28;20022;-46
2022/05/24 04:20:51;;;;;;;4.38;1.50;;;15.90;99.90;;;;;;5014607;28;20438;-48
2022/05/24 04:23:19;;;;;;;3.85;1.15;;;15.90;99.90;;;;;;5015946;28;20092;-46
2022/05/24 04:25:45;;;;;;;8.40;1.90;;;16.00;99.90;;;;;;5014827;28;20369;-47
2022/05/24 04:28:11;;;;;;;2.00;1.10;;;16.00;99.90;;;;;;5015140;28;20022;-46
2022/05/24 04:30:36;;;;;;;3.50;1.27;;;16.00;99.90;;;;;;5014443;28;20126;-46
2022/05/24 04:33:02;;;;;;;2.33;1.23;;;16.20;99.90;;;;;;5016072;28;20080;-46
2022/05/24 04:35:28;;;;;;;3.20;1.40;;;16.40;99.90;;;;;;5016382;28;20050;-46
2022/05/24 04:37:53;;;;;;;1.90;1.40;;;16.40;99.90;;;;;;5014790;28;20100;-48
2022/05/24 04:42:18;;;;;;;2.63;1.40;;;16.40;99.90;;;;;;5016539;28;20103;-46
2022/05/24 04:43:05;;;;;;;2.25;1.50;;;16.40;99.90;;;;;;5015753;28;20043;-46
2022/05/24 04:45:31;;;;;;;3.38;1.80;;;16.60;99.90;;;;;;5015561;28;20025;-46
2022/05/24 04:47:56;;;;;;;2.40;1.80;;;16.60;99.90;;;;;;5014699;28;20029;-46
2022/05/24 04:50:22;;;;;;;2.58;1.88;;;16.70;99.90;;;;;;5014425;28;20030;-48
2022/05/24 04:52:47;;;;;;;4.30;1.98;;;16.70;99.90;;;;;;5014849;28;20018;-47
2022/05/24 04:55:14;;;;;;;3.70;2.33;;;16.70;99.90;;;;;;5016012;28;20022;-46
2022/05/24 04:57:40;;;;;;;3.40;2.30;;;16.70;99.90;;;;;;5015664;28;20106;-48
2022/05/24 05:00:12;;;;;;;4.03;2.50;;;16.80;99.90;;;;;;5014414;28;20022;-48
2022/05/24 05:02:38;;;;;;;6.85;2.75;;;16.90;99.90;;;;;;5015419;28;20030;-48
2022/05/24 05:05:04;;;;;;;6.40;2.67;;;16.90;99.90;;;;;;5014286;28;20072;-49
2022/05/24 05:07:31;;;;;;;4.80;3.00;;;17.00;99.90;;;;;;5014284;28;20022;-46
2022/05/24 05:09:56;;;;;;;5.30;2.40;;;17.00;99.90;;;;;;5015355;28;20392;-46
2022/05/24 05:12:25;;;;;;;4.15;2.50;;;17.10;99.90;;;;;;5014441;28;20022;-46
2022/05/24 05:14:50;;;;;;;4.05;2.70;;;17.00;99.90;;;;;;5014129;28;20018;-46
2022/05/24 05:17:18;;;;;;;5.20;2.45;;;17.10;99.90;;;;;;5014591;28;20022;-46
2022/05/24 05:19:45;;;;;;;4.43;2.65;;;17.20;99.90;;;;;;5014100;28;20128;-46
2022/05/24 05:22:10;;;;;;;3.35;2.53;;;17.20;99.90;;;;;;5013954;28;20022;-46
2022/05/24 05:24:36;;;;;;;5.45;3.05;;;17.20;99.90;;;;;;5013948;28;20030;-46
2022/05/24 05:27:02;;;;;;;5.75;4.00;;;17.20;99.90;;;;;;5015157;28;20496;-46
2022/05/24 05:32:21;;;;;;;7.50;4.80;;;17.20;99.90;;;;;;5015419;28;20091;-46
2022/05/24 05:34:48;;;;;;;4.57;3.60;;;17.10;99.90;;;;;;5013824;28;20029;-47
2022/05/24 05:37:14;;;;;;;6.75;4.30;;;16.90;99.90;;;;;;5015023;28;20045;-46
2022/05/24 05:39:40;;;;;;;7.03;4.45;;;16.80;99.90;;;;;;5014886;28;20133;-46
2022/05/24 05:42:06;;;;;;;9.00;4.55;;;16.70;99.90;;;;;;5015147;28;20057;-48
2022/05/24 05:44:32;;;;;;;8.55;4.80;;;16.70;99.90;;;;;;5013579;28;20061;-46
2022/05/24 05:46:57;;;;;;;8.90;5.25;;;16.70;99.90;;;;;;5014748;28;20042;-47
2022/05/24 05:49:23;;;;;;;11.48;4.90;;;16.60;99.90;;;;;;5014940;28;20025;-46
2022/05/24 05:51:49;;;;;;;7.03;4.75;;;16.60;99.90;;;;;;5013451;28;20121;-50
2022/05/24 05:54:15;;;;;;;5.43;3.95;;;16.50;99.90;;;;;;5014619;28;20022;-47
2022/05/24 05:56:41;;;;;;;4.70;3.60;;;16.60;99.90;;;;;;5013405;28;20026;-47
2022/05/24 05:59:07;;;;;;;6.25;3.03;;;16.50;99.90;;;;;;5014563;28;20080;-47
2022/05/24 06:01:33;;;;;;;4.72;3.22;;;16.50;99.90;;;;;;5012604;28;20038;-49
2022/05/24 06:03:59;;;;;;;3.97;2.10;;;16.50;99.90;;;;;;5014481;28;20057;-49
2022/05/24 06:06:29;;;;;;;6.57;1.90;;;16.30;99.90;;;;;;5013535;28;20473;-47
2022/05/24 06:08:54;;;;;;;6.00;1.50;;;16.30;99.90;;;;;;5013101;28;20080;-51
2022/05/24 06:11:21;;;;;;;2.63;1.40;;;16.20;99.90;;;;;;5014309;28;20029;-47
2022/05/24 06:13:46;;;;;;;1.92;1.55;;;16.30;99.90;;;;;;5014315;28;20025;-48
2022/05/24 06:16:13;;;;;;;1.55;0.88;;;16.30;99.90;;;;;;5013358;28;20014;-46
2022/05/24 06:18:39;;;;;;;1.80;0.80;;;16.30;99.90;;;;;;5012968;28;20030;-46
2022/05/24 06:21:06;;;;;;;0.85;0.85;;;16.30;99.90;;;;;;5013702;28;20029;-49
2022/05/24 06:23:31;;;;;;;1.45;0.90;;;16.40;99.90;;;;;;5014504;28;20045;-47
2022/05/24 06:25:57;;;;;;;3.83;1.20;;;16.40;99.90;;;;;;5013673;28;20452;-48
2022/05/24 06:28:23;;;;;;;2.72;1.02;;;16.50;99.90;;;;;;5014437;28;20030;-46
2022/05/24 06:30:49;;;;;;;1.10;1.00;;;16.50;99.90;;;;;;5013921;28;20076;-46
2022/05/24 06:33:15;;;;;;;2.20;0.93;;;16.60;99.90;;;;;;5014162;28;20025;-47
2022/05/24 06:35:41;;;;;;;3.33;1.15;;;16.60;99.90;;;;;;5014103;28;20025;-48
2022/05/24 06:38:07;;;;;;;2.72;1.00;;;16.60;99.90;;;;;;5012785;28;20443;-52
2022/05/24 06:40:34;;;;;;;1.30;1.00;;;16.70;99.90;;;;;;5014121;28;20481;-46
2022/05/24 06:43:00;;;;;;;2.08;0.98;;;17.00;99.90;;;;;;5012534;28;20041;-46
2022/05/24 06:45:25;;;;;;;3.10;1.02;;;17.40;99.90;;;;;;5014406;28;20026;-46
2022/05/24 06:47:51;;;;;;;1.85;1.00;;;17.70;99.90;;;;;;5013405;28;20026;-46
2022/05/24 06:50:17;;;;;;;7.72;2.22;;;17.70;99.90;;;;;;5012752;28;20061;-46
2022/05/24 06:52:43;;;;;;;3.47;0.90;;;17.50;99.90;;;;;;5013458;28;20025;-46
2022/05/24 06:55:10;;;;;;;0.82;0.50;;;17.30;99.90;;;;;;5012764;28;20022;-46
2022/05/24 06:57:35;;;;;;;5.72;0.60;;;17.10;99.90;;;;;;5013666;28;20026;-46
2022/05/24 07:02:49;;;;;;;0.57;0.43;;;17.10;99.90;;;;;;5013680;28;20045;-49
2022/05/24 07:05:19;;;;;;;0.35;0.35;;;17.10;99.90;;;;;;5012392;28;20029;-47
2022/05/24 07:07:46;;;;;;;1.63;0.43;;;17.10;99.90;;;;;;5013923;28;20026;-50
2022/05/24 07:10:15;;;;;;;0.68;0.50;;;17.10;99.90;;;;;;5012287;28;20078;-49
2022/05/24 07:12:41;;;;;;;1.83;0.60;;;17.10;99.90;;;;;;5012709;28;20029;-47
2022/05/24 07:15:08;;;;;;;1.17;0.85;;;17.10;99.90;;;;;;5017903;28;20026;-49
2022/05/24 07:17:33;;;;;;;0.75;0.75;;;17.10;99.90;;;;;;5016686;28;20076;-50
2022/05/24 07:19:59;;;;;;;0.55;0.55;;;17.00;99.90;;;;;;5016281;28;20034;-50
2022/05/24 07:22:24;;;;;;;4.13;0.80;;;17.00;99.90;;;;;;5016411;28;20033;-48
2022/05/24 07:24:50;;;;;;;1.13;0.38;;;17.00;99.90;;;;;;5016608;28;20040;-50
2022/05/24 07:27:22;;;;;;;0.93;0.45;;;17.00;99.90;;;;;;5016156;28;20053;-46
2022/05/24 07:29:48;;;;;;;2.25;1.10;;;17.10;99.90;;;;;;5017031;28;20026;-47
2022/05/24 07:32:14;;;;;;;1.20;1.00;;;17.20;99.90;;;;;;5016289;28;20100;-47
2022/05/24 07:34:40;;;;;;;1.65;0.70;;;17.20;99.90;;;;;;5017235;28;20465;-48
2022/05/24 07:37:07;;;;;;;1.45;0.52;;;17.50;99.90;;;;;;5015932;28;20076;-49
2022/05/24 07:39:33;;;;;;;3.38;0.73;;;17.50;99.90;;;;;;5017342;28;20057;-46
2022/05/24 07:47:30;;;;;;;1.15;0.30;;;17.70;99.90;;;;;;5017452;28;20080;-47
2022/05/24 07:49:56;;;;;;;2.22;0.40;;;17.90;99.90;;;;;;5016898;28;20029;-50
2022/05/24 07:52:21;;;;;;;2.20;0.50;;;17.90;99.90;;;;;;5015909;28;20105;-47
2022/05/24 07:54:47;;;;;;;1.63;0.70;;;17.90;99.90;;;;;;5016162;28;20112;-46
2022/05/24 07:57:13;;;;;;;1.83;0.75;;;18.00;99.90;;;;;;5015601;28;20022;-46
2022/05/24 07:59:42;;;;;;;0.65;0.60;;;18.00;99.90;;;;;;5015896;28;20125;-47
2022/05/24 08:02:08;;;;;;;0.50;0.50;;;18.10;99.90;;;;;;5015616;28;20049;-47
2022/05/24 08:04:34;;;;;;;0.50;0.50;;;18.00;99.90;;;;;;5016652;28;20030;-53
2022/05/24 08:07:00;;;;;;;1.45;0.63;;;18.00;99.90;;;;;;5016665;28;20022;-46
2022/05/24 08:09:26;;;;;;;0.85;0.40;;;18.10;99.90;;;;;;5015577;28;20037;-46
2022/05/24 08:11:51;;;;;;;0.75;0.45;;;18.00;99.90;;;;;;5016554;28;20026;-46
2022/05/24 08:14:17;;;;;;;1.83;0.60;;;17.90;99.90;;;;;;5016508;28;20048;-46
2022/05/24 08:16:43;;;;;;;0.77;0.38;;;17.80;99.90;;;;;;5015853;28;20080;-47
2022/05/24 08:19:09;;;;;;;0.57;0.40;;;17.80;99.90;;;;;;5016013;28;20025;-46
2022/05/24 08:21:36;;;;;;;0.55;0.40;;;17.90;99.90;;;;;;5015799;28;20032;-48
2022/05/24 08:24:01;;;;;;;1.80;0.80;;;17.90;99.90;;;;;;5015895;28;20030;-47
2022/05/24 08:26:27;;;;;;;1.45;0.47;;;17.70;99.90;;;;;;5015090;28;20433;-47
2022/05/24 08:28:53;;;;;;;1.40;0.40;;;17.70;99.90;;;;;;5015353;28;20038;-47
2022/05/24 08:31:19;;;;;;;2.92;1.10;;;17.50;99.90;;;;;;5014902;28;20022;-47
2022/05/24 08:33:46;;;;;;;3.00;0.85;;;17.30;99.90;;;;;;5016233;28;20021;-47
2022/05/24 08:36:13;;;;;;;1.08;0.52;;;17.30;99.90;;;;;;5015206;28;20022;-47
2022/05/24 08:38:40;;;;;;;1.05;0.60;;;17.20;99.90;;;;;;5015479;28;20022;-49
2022/05/24 08:41:38;;;;;;;0.75;0.57;;;17.20;99.90;;;;;;5015972;28;20022;-48
2022/05/24 08:50:17;;;;;;;2.35;0.60;;;17.50;99.90;;;;;;4994205;28;20038;-46
2022/05/24 08:52:55;;;;;;;0.63;0.38;;;17.70;99.90;;;;;;5006505;28;20030;-50
2022/05/24 08:55:20;;;;;;;1.35;0.35;;;18.20;99.90;;;;;;5015808;28;20018;-47
2022/05/24 08:57:52;;;;;;;4.63;1.02;;;19.40;99.90;;;;;;5015738;28;20092;-52
2022/05/24 09:00:25;;;;;;;0.88;0.57;;;21.10;99.90;;;;;;5015977;28;20038;-47
2022/05/24 09:02:51;;;;;;;0.47;0.40;;;22.50;99.90;;;;;;5015508;28;20033;-49
2022/05/24 09:05:19;;;;;;;0.40;0.40;;;23.10;99.90;;;;;;5014419;28;20034;-47
2022/05/24 09:08:10;;;;;;;2.90;1.13;;;23.20;99.90;;;;;;5014230;28;20419;-46
2022/05/24 09:11:06;;;;;;;2.15;0.60;;;24.00;99.90;;;;;;5014282;28;20022;-48
2022/05/24 09:13:50;;;;;;;1.15;0.50;;;24.90;99.90;;;;;;5015505;28;20040;-47
2022/05/24 09:16:17;;;;;;;3.80;0.40;;;26.20;99.90;;;;;;5015611;28;20032;-47
2022/05/24 09:18:51;;;;;;;0.45;0.40;;;26.40;99.90;;;;;;5015367;28;20388;-49
2022/05/24 09:21:29;;;;;;;2.63;0.40;;;25.90;99.90;;;;;;5015267;28;20053;-49
2022/05/24 09:24:33;;;;;;;0.40;0.40;;;25.10;99.90;;;;;;5014949;28;20361;-50
2022/05/24 09:27:13;;;;;;;1.23;0.50;;;24.90;99.90;;;;;;5010256;28;20036;-47
2022/05/24 09:30:20;;;;;;;1.42;0.45;;;26.00;99.90;;;;;;5015029;28;20045;-47
2022/05/24 09:32:46;;;;;;;0.77;0.40;;;26.10;99.90;;;;;;5013749;28;20021;-47
2022/05/24 09:35:23;;;;;;;2.10;0.50;;;26.30;99.90;;;;;;5013356;28;20034;-47
2022/05/24 09:38:03;;;;;;;1.73;0.60;;;26.00;99.90;;;;;;5013539;28;20088;-49
2022/05/24 09:40:30;;;;;;;1.42;0.70;;;25.30;99.90;;;;;;5014018;28;20117;-50
2022/05/24 09:42:55;;;;;;;1.38;0.50;;;24.40;99.90;;;;;;5013760;28;20140;-47
2022/05/24 09:45:27;;;;;;;0.38;0.38;;;23.50;99.90;;;;;;5013720;28;20113;-47
2022/05/24 09:47:58;;;;;;;0.65;0.45;;;22.60;99.90;;;;;;5013617;28;20092;-46
2022/05/24 09:50:31;;;;;;;;;;;22.00;99.90;;;;;;5013870;28;20032;-47
2022/05/24 09:53:03;;;;;;;1.63;0.38;;;21.60;99.90;;;;;;5013835;28;19905;-47
2022/05/24 09:55:42;;;;;;;0.60;0.50;;;21.20;99.90;;;;;;5014126;28;20065;-53
2022/05/24 09:58:32;;;;;;;1.52;0.73;;;20.90;99.90;;;;;;5015521;28;20101;-49
2022/05/24 10:00:57;;;;;;;0.75;0.50;;;20.60;99.90;;;;;;5013253;28;20085;-53
2022/05/24 10:03:37;;;;;;;1.65;0.52;;;20.50;99.90;;;;;;5015438;28;20033;-47
2022/05/24 10:06:14;;;;;;;1.02;0.45;;;20.20;99.90;;;;;;5014955;28;20029;-48
2022/05/24 10:08:51;;;;;;;2.40;0.65;;;20.10;99.90;;;;;;5014495;28;20033;-47
2022/05/24 10:11:56;;;;;;;1.25;0.30;;;19.90;99.90;;;;;;5013975;28;20026;-47
2022/05/24 10:14:35;;;;;;;1.10;0.52;;;20.00;99.90;;;;;;5013114;28;20113;-49
2022/05/24 10:17:19;;;;;;;0.75;0.38;;;20.30;99.90;;;;;;5013161;28;20033;-49
2022/05/24 10:20:09;;;;;;;1.13;0.50;;;20.50;99.90;;;;;;5014223;28;20021;-51
2022/05/24 10:22:48;;;;;;;1.27;0.35;;;21.50;99.90;;;;;;5014140;28;20054;-50
2022/05/24 10:25:44;;;;;;;1.92;0.63;;;23.20;99.90;;;;;;5014486;28;20028;-47
2022/05/24 10:28:40;;;;;;;0.75;0.40;;;24.90;99.90;;;;;;5006472;28;20034;-47
2022/05/24 10:31:31;;;;;;;1.30;0.55;;;25.80;99.90;;;;;;4997855;28;20040;-46
2022/05/24 10:40:10;;;;;;;1.48;0.30;;;25.60;99.90;;;;;;5014033;28;20025;-60
2022/05/24 10:42:48;;;;;;;0.43;0.43;;;25.30;99.90;;;;;;5012615;28;20052;-60
2022/05/24 10:45:17;;;;;;;1.65;0.35;;;24.80;99.90;;;;;;5013482;28;20037;-60
2022/05/24 10:48:03;;;;;;;0.40;0.40;;;24.40;99.90;;;;;;5012452;28;20069;-60
2022/05/24 10:50:37;;;;;;;0.50;0.47;;;24.10;99.90;;;;;;5013975;28;20026;-61
2022/05/24 10:53:13;;;;;;;2.50;0.50;;;23.90;99.90;;;;;;5012491;28;20022;-60
2022/05/24 10:56:03;;;;;;;2.28;0.57;;;23.90;99.90;;;;;;5012600;28;20069;-59
2022/05/24 10:58:32;;;;;;;2.10;0.32;;;23.60;99.90;;;;;;5013870;28;20032;-59
2022/05/24 11:01:16;;;;;;;0.75;0.50;;;23.40;99.90;;;;;;5013561;28;20030;-57
2022/05/24 11:03:49;;;;;;;2.40;0.57;;;23.30;99.90;;;;;;5012763;28;20072;-59
2022/05/24 11:06:34;;;;;;;1.75;0.50;;;22.90;99.90;;;;;;5012331;28;20084;-59
2022/05/24 11:09:11;;;;;;;1.60;0.68;;;22.60;99.90;;;;;;5013574;28;20026;-59
2022/05/24 11:11:46;;;;;;;1.27;0.47;;;22.40;99.90;;;;;;5012302;28;20500;-60
2022/05/24 11:14:42;;;;;;;1.13;0.60;;;22.30;99.90;;;;;;5013568;28;20088;-59
2022/05/24 11:17:12;;;;;;;1.63;0.40;;;22.30;99.90;;;;;;5013348;28;20071;-59
2022/05/24 11:19:44;;;;;;;0.82;0.40;;;22.00;99.90;;;;;;5012446;28;20026;-60
2022/05/24 11:22:16;;;;;;;3.22;0.50;;;22.00;99.90;;;;;;5012323;28;20096;-60
2022/05/24 11:24:52;;;;;;;1.88;0.40;;;22.00;99.90;;;;;;5012360;28;20084;-59
2022/05/24 11:27:29;;;;;;;1.00;0.43;;;22.30;99.90;;;;;;5013718;28;20097;-60
2022/05/24 11:30:18;;;;;;;2.30;0.38;;;22.40;99.90;;;;;;5013733;28;20093;-60
2022/05/24 11:33:05;;;;;;;2.15;1.20;;;22.50;99.90;;;;;;5012105;28;20068;-60
2022/05/24 11:35:46;;;;;;;2.10;0.50;;;22.40;99.90;;;;;;5013035;28;20032;-59
2022/05/24 11:38:20;;;;;;;1.42;0.55;;;22.60;99.90;;;;;;5013020;28;20029;-58
2022/05/24 11:40:54;;;;;;;1.35;0.60;;;22.70;99.90;;;;;;5012169;28;20036;-60
2022/05/24 11:43:35;;;;;;;1.35;0.50;;;22.90;99.90;;;;;;5013594;28;20050;-60
2022/05/24 11:46:24;;;;;;;1.30;0.50;;;23.10;99.90;;;;;;5012303;28;20033;-59
2022/05/24 11:48:52;;;;;;;0.85;0.45;;;23.10;99.90;;;;;;5012435;28;20022;-59
2022/05/24 11:51:39;;;;;;;1.33;0.60;;;22.90;99.90;;;;;;5011931;28;20022;-60
2022/05/24 11:54:23;;;;;;;1.23;0.63;;;22.80;99.90;;;;;;5011894;28;20080;-58
2022/05/24 11:57:01;;;;;;;3.50;0.95;;;22.50;99.90;;;;;;5011987;28;20053;-58
2022/05/24 11:59:49;;;;;;;5.30;0.50;;;22.50;99.90;;;;;;5013792;28;20026;-59
2022/05/24 12:02:33;;;;;;;1.08;0.57;;;22.50;99.90;;;;;;5015740;28;20037;-58
2022/05/24 12:08:05;;;;;;;1.48;0.50;;;22.60;99.90;;;;;;5017242;28;20040;-59
2022/05/24 12:10:46;;;;;;;0.30;0.30;;;22.70;99.90;;;;;;5015652;28;20026;-59
2022/05/24 12:13:32;;;;;;;2.55;0.40;;;22.60;99.90;;;;;;5015579;28;20022;-58
2022/05/24 12:16:04;;;;;;;0.52;0.40;;;22.60;99.90;;;;;;5016514;28;20022;-59
2022/05/24 12:18:53;;;;;;;0.45;0.45;;;22.60;99.90;;;;;;5016578;28;20018;-58
2022/05/24 12:21:56;;;;;;;0.40;0.30;;;22.50;99.90;;;;;;5016630;28;20022;-60
2022/05/24 12:24:35;;;;;;;0.63;0.40;;;22.40;99.90;;;;;;5015448;28;20026;-58
2022/05/24 12:27:20;;;;;;;0.75;0.32;;;22.50;99.90;;;;;;5015727;28;20022;-59
2022/05/24 12:29:57;;;;;;;0.93;0.40;;;22.50;99.90;;;;;;5016452;28;20030;-59
2022/05/24 12:32:25;;;;;;;0.70;0.47;;;22.40;99.90;;;;;;5015051;28;20109;-59
2022/05/24 12:34:51;;;;;;;0.63;0.50;;;22.30;99.90;;;;;;5051625;22;20395;-56
2022/05/24 12:37:30;;;;;;;0.50;0.50;;;22.30;99.90;;;;;;5034660;28;20026;-53
2022/05/24 12:40:06;;;;;;;4.55;0.55;;;22.30;99.90;;;;;;5035788;28;20061;-56
2022/05/24 12:42:32;;;;;;;1.25;0.60;;;22.20;99.90;;;;;;5034523;28;20042;-55
2022/05/24 12:45:01;;;;;;;2.35;0.50;;;22.10;99.90;;;;;;5035991;28;20033;-56
2022/05/24 12:47:27;;;;;;;0.68;0.50;;;22.20;99.90;;;;;;5034731;28;20053;-56
2022/05/24 12:49:56;;;;;;;2.47;0.45;;;22.20;99.90;;;;;;5034380;28;20033;-53
2022/05/24 12:52:32;;;;;;;0.47;0.47;;;22.30;99.90;;;;;;5035719;28;20028;-54
2022/05/24 12:54:58;;;;;;;1.05;0.30;;;22.30;99.90;;;;;;5034648;28;20029;-56
2022/05/24 12:57:32;;;;;;;1.38;0.50;;;22.40;99.90;;;;;;5034573;28;20021;-51
2022/05/24 13:00:19;;;;;;;1.00;0.60;;;22.50;99.90;;;;;;5035169;28;20052;-52
2022/05/24 13:02:47;;;;;;;2.63;0.40;;;22.50;99.90;;;;;;5035438;28;20034;-56
2022/05/24 13:05:17;;;;;;;0.93;0.45;;;22.50;99.90;;;;;;5034091;28;20026;-56
2022/05/24 13:07:52;;;;;;;1.40;0.40;;;22.60;99.90;;;;;;5035372;28;20022;-56
2022/05/24 13:10:25;;;;;;;0.88;0.40;;;22.50;99.90;;;;;;5033973;28;20033;-55
2022/05/24 13:12:56;;;;;;;2.20;0.63;;;22.50;99.90;;;;;;5035298;28;20029;-51
2022/05/24 13:15:44;;;;;;;0.73;0.30;;;22.40;99.90;;;;;;5035189;28;20021;-55
2022/05/24 13:18:16;;;;;;;1.98;0.50;;;22.20;99.90;;;;;;5033992;28;20032;-55
2022/05/24 13:20:56;;;;;;;2.58;0.60;;;22.00;99.90;;;;;;5035190;28;20025;-54
2022/05/24 13:23:41;;;;;;;1.40;0.55;;;21.90;99.90;;;;;;5034591;28;20026;-56
2022/05/24 13:26:09;;;;;;;0.50;0.40;;;21.90;99.90;;;;;;5035044;28;20029;-52
2022/05/24 13:28:46;;;;;;;1.67;0.60;;;22.00;99.90;;;;;;5034527;28;20025;-51
2022/05/24 13:34:26;;;;;;;;;;;21.90;99.90;;;;;;5035590;28;20028;-55
2022/05/24 13:36:57;;;;;;;2.67;0.60;;;21.90;99.90;;;;;;5033624;28;19909;-53
2022/05/24 13:39:27;;;;;;;1.70;0.80;;;21.90;99.90;;;;;;5034014;28;20032;-56
2022/05/24 13:42:09;;;;;;;2.17;0.52;;;21.80;99.90;;;;;;5033229;28;20025;-56
2022/05/24 13:44:41;;;;;;;0.88;0.50;;;21.90;99.90;;;;;;5033274;28;20029;-54
2022/05/24 13:47:29;;;;;;;2.00;0.50;;;21.90;99.90;;;;;;5033312;28;20113;-53